Saint-Germain-De-Grantham, Canada
Current Conditions -  °F | °C
As of 9:00 AM on Saturday 25 Oct 2014 (Local Time) from CYRQ Reporting Station
Moderate Fog Moderate Fog  
Wind Chill: 37°   Ceiling: 200
Heat Index: 37°   Visibility: 0mi
Dew Point: 37°   Wind: 0mph
Humidity: 100%   Direction: NA
Pressure: 29.7"   Gusts: NA
Location:  45.83°N, 72.57°W
Report Text: CYRQ 251300Z AUTO 00000KT 0SM FG VV002 03/03 A2970 RMK SLP058
Loading
Personal Weather Stations






























Interactive Weather Map
Tropical Storm Tracking
New forecast layout! Learn more

10-Day Weather Forecast

Advertisements
Track Severe Weather on mobile